Time;durP1;ratioP1;P1;durP2;ratioP2;P2;SDS_P1;SDS_P2;PMS_P1;PMS_P2;Temp;Humidity;BMP_temperature;BMP_pressure;BME280_temperature;BME280_humidity;BME280_pressure;Samples;Min_cycle;Max_cycle;Signal;HPM_P1;HPM_P2
2023/06/25 00:00:51;;;;;;;7.70;6.97;;;18.90;99.90;;;;;;5060505;28;20063;-89
2023/06/25 00:03:16;;;;;;;9.23;7.75;;;18.50;99.90;;;;;;5057440;28;20040;-89
2023/06/25 00:05:44;;;;;;;8.13;7.32;;;18.40;99.90;;;;;;5040321;28;20049;-88
2023/06/25 00:08:10;;;;;;;7.53;6.72;;;18.50;99.90;;;;;;5039402;28;20076;-89
2023/06/25 00:10:35;;;;;;;8.68;7.78;;;18.50;99.90;;;;;;5038977;28;20049;-87
2023/06/25 00:13:02;;;;;;;8.95;7.25;;;18.40;99.90;;;;;;5054922;28;20124;-88
2023/06/25 00:15:28;;;;;;;8.90;7.70;;;18.60;99.90;;;;;;5049256;28;20127;-88
2023/06/25 00:17:56;;;;;;;9.75;8.25;;;18.40;99.90;;;;;;5060144;28;20132;-88
2023/06/25 00:20:24;;;;;;;10.68;7.60;;;18.10;99.90;;;;;;5059723;28;20136;-89
2023/06/25 00:22:50;;;;;;;8.80;7.90;;;18.10;99.90;;;;;;5059107;28;20049;-87
2023/06/25 00:25:17;;;;;;;11.80;7.72;;;18.30;99.90;;;;;;5059425;28;20040;-88
2023/06/25 00:27:47;;;;;;;8.52;7.72;;;18.20;99.90;;;;;;5075238;28;20115;-89
2023/06/25 00:30:16;;;;;;;9.35;8.43;;;18.30;99.90;;;;;;5059147;28;20541;-88
2023/06/25 00:32:43;;;;;;;8.85;7.95;;;18.30;99.90;;;;;;5058230;28;21011;-89
2023/06/25 00:35:09;;;;;;;9.90;8.63;;;18.30;99.90;;;;;;5057959;28;20036;-88
2023/06/25 00:37:38;;;;;;;10.18;8.00;;;18.30;99.90;;;;;;5058379;28;20131;-89
2023/06/25 00:40:05;;;;;;;10.20;7.88;;;18.30;99.90;;;;;;5058508;28;20044;-89
2023/06/25 00:42:41;;;;;;;9.50;7.80;;;18.20;99.90;;;;;;5058384;28;20044;-89
2023/06/25 00:45:11;;;;;;;10.00;7.93;;;18.50;99.90;;;;;;5076052;28;20068;-89
2023/06/25 00:47:38;;;;;;;9.70;7.75;;;18.00;99.90;;;;;;5059214;28;20198;-89
2023/06/25 00:50:06;;;;;;;9.23;8.20;;;18.20;99.90;;;;;;5058387;28;20185;-88
2023/06/25 00:52:32;;;;;;;10.18;8.63;;;18.20;99.90;;;;;;5075486;28;20051;-89
2023/06/25 00:54:57;;;;;;;8.85;7.43;;;18.20;99.90;;;;;;5059138;28;20426;-88
2023/06/25 00:57:27;;;;;;;9.40;8.48;;;18.30;99.90;;;;;;5059240;28;20050;-89
2023/06/25 00:59:55;;;;;;;9.70;8.55;;;18.10;99.90;;;;;;5059751;28;20059;-88
2023/06/25 01:02:48;;;;;;;9.63;8.15;;;18.10;99.90;;;;;;5075904;28;20048;-89
2023/06/25 01:05:39;;;;;;;9.80;8.48;;;18.40;99.90;;;;;;5047908;28;20044;-89
2023/06/25 01:08:08;;;;;;;9.90;8.82;;;18.00;99.90;;;;;;5036159;28;20519;-89
2023/06/25 01:10:36;;;;;;;10.70;8.70;;;18.00;99.90;;;;;;5038919;28;20040;-88
2023/06/25 01:13:02;;;;;;;11.20;8.93;;;18.30;99.90;;;;;;5035831;28;20045;-89
2023/06/25 01:15:27;;;;;;;9.27;8.25;;;18.10;99.90;;;;;;5036030;28;20396;-90
2023/06/25 01:17:54;;;;;;;10.15;8.95;;;18.00;99.90;;;;;;5035751;28;20052;-89
2023/06/25 01:20:27;;;;;;;9.60;8.60;;;18.00;99.90;;;;;;5036086;28;20139;-89
2023/06/25 01:22:56;;;;;;;10.30;8.75;;;18.00;99.90;;;;;;5036060;28;20059;-87
2023/06/25 01:25:21;;;;;;;9.13;8.23;;;18.00;99.90;;;;;;5041233;28;20056;-89
2023/06/25 01:27:49;;;;;;;9.90;8.88;;;17.90;99.90;;;;;;5055706;28;20047;-88
2023/06/25 01:30:15;;;;;;;11.45;8.75;;;17.90;99.90;;;;;;5054033;28;20067;-88
2023/06/25 01:32:41;;;;;;;10.52;9.20;;;17.80;99.90;;;;;;5073192;28;20071;-88
2023/06/25 01:35:08;;;;;;;10.38;9.27;;;17.80;99.90;;;;;;5071787;28;20048;-89
2023/06/25 01:37:34;;;;;;;10.70;9.10;;;17.80;99.90;;;;;;5054687;28;20492;-88
2023/06/25 01:39:59;;;;;;;12.07;9.38;;;17.80;99.90;;;;;;5054995;28;20045;-87
2023/06/25 01:42:25;;;;;;;11.40;10.00;;;17.70;99.90;;;;;;5072560;28;20063;-88
2023/06/25 01:44:51;;;;;;;11.75;10.23;;;17.60;99.90;;;;;;5054830;28;20044;-88
2023/06/25 01:47:16;;;;;;;12.95;9.82;;;17.70;99.90;;;;;;5055742;28;20044;-89
2023/06/25 01:49:42;;;;;;;13.00;9.88;;;17.80;99.90;;;;;;5055295;28;20060;-89
2023/06/25 01:52:08;;;;;;;11.48;10.18;;;17.80;99.90;;;;;;5054453;28;20455;-89
2023/06/25 01:54:34;;;;;;;12.18;9.90;;;18.00;99.90;;;;;;5053139;28;20040;-89
2023/06/25 01:57:00;;;;;;;11.50;9.63;;;17.60;99.90;;;;;;5053060;28;20408;-88
2023/06/25 01:59:27;;;;;;;12.15;10.20;;;17.60;99.90;;;;;;5051724;28;20053;-90
2023/06/25 02:01:53;;;;;;;13.25;9.95;;;17.70;99.90;;;;;;5050757;28;20053;-90
2023/06/25 02:04:20;;;;;;;12.77;11.27;;;17.30;99.90;;;;;;5045801;28;20457;-88
2023/06/25 02:06:46;;;;;;;11.68;10.48;;;17.40;99.90;;;;;;5051276;28;20205;-89
2023/06/25 02:09:14;;;;;;;14.10;10.93;;;17.20;99.90;;;;;;5035069;28;20040;-88
2023/06/25 02:11:40;;;;;;;13.18;10.07;;;17.50;99.90;;;;;;5058859;28;20064;-89
2023/06/25 02:14:06;;;;;;;11.23;9.73;;;17.70;99.90;;;;;;5053975;28;20044;-89
2023/06/25 02:16:32;;;;;;;14.45;10.82;;;17.40;99.90;;;;;;5054724;28;20048;-89
2023/06/25 02:18:58;;;;;;;12.20;10.80;;;17.50;99.90;;;;;;5067985;28;20040;-90
2023/06/25 02:21:24;;;;;;;13.52;10.13;;;17.40;99.90;;;;;;5057769;28;20101;-89
2023/06/25 02:23:51;;;;;;;12.35;9.88;;;17.40;99.90;;;;;;5054419;28;20041;-89
2023/06/25 02:26:16;;;;;;;14.70;10.93;;;17.40;99.90;;;;;;5071124;28;20053;-89
2023/06/25 02:28:42;;;;;;;13.02;10.98;;;17.50;99.90;;;;;;5054768;28;20064;-90
2023/06/25 02:31:08;;;;;;;13.38;10.70;;;17.20;99.90;;;;;;5051216;28;20128;-91
2023/06/25 02:33:35;;;;;;;12.02;10.48;;;17.40;99.90;;;;;;5049939;28;20419;-89
2023/06/25 02:36:02;;;;;;;17.10;12.13;;;17.20;99.90;;;;;;5055039;28;20049;-91
2023/06/25 02:38:28;;;;;;;12.75;10.77;;;17.20;99.90;;;;;;5055791;28;20127;-87
2023/06/25 02:40:54;;;;;;;15.10;11.25;;;17.10;99.90;;;;;;5056039;28;20087;-89
2023/06/25 02:43:20;;;;;;;13.63;10.10;;;17.10;99.90;;;;;;5054560;28;20082;-89
2023/06/25 02:45:48;;;;;;;13.93;11.80;;;17.50;99.90;;;;;;5054668;28;20045;-89
2023/06/25 02:48:14;;;;;;;15.30;11.48;;;17.10;99.90;;;;;;5048608;28;20045;-90
2023/06/25 02:50:40;;;;;;;14.48;12.45;;;17.50;99.90;;;;;;5037010;28;20051;-91
2023/06/25 02:53:05;;;;;;;14.63;12.98;;;17.20;99.90;;;;;;5054303;28;20040;-89
2023/06/25 02:55:31;;;;;;;15.32;11.25;;;17.20;99.90;;;;;;5055427;28;20051;-89
2023/06/25 02:57:57;;;;;;;13.13;11.18;;;17.10;99.90;;;;;;5054463;28;20040;-90
2023/06/25 03:00:22;;;;;;;14.00;11.65;;;16.80;99.90;;;;;;5054772;28;20047;-88
2023/06/25 03:02:48;;;;;;;16.13;12.48;;;17.00;99.90;;;;;;5040165;28;20044;-90
2023/06/25 03:05:14;;;;;;;16.52;13.10;;;17.00;99.90;;;;;;5044703;28;20040;-89
2023/06/25 03:07:52;;;;;;;15.00;12.98;;;17.00;99.90;;;;;;5043737;28;20566;-89
2023/06/25 03:10:18;;;;;;;17.70;13.93;;;17.10;99.90;;;;;;5050519;28;20048;-90
2023/06/25 03:12:44;;;;;;;16.88;12.27;;;17.40;99.90;;;;;;5054339;28;20556;-89
2023/06/25 03:15:10;;;;;;;17.65;12.43;;;17.20;99.90;;;;;;5054537;28;20040;-87
2023/06/25 03:17:41;;;;;;;15.55;13.48;;;17.00;99.90;;;;;;5054917;28;20044;-90
2023/06/25 03:20:08;;;;;;;15.98;12.45;;;17.10;99.90;;;;;;5054314;28;20048;-88
2023/06/25 03:22:33;;;;;;;14.23;12.52;;;16.90;99.90;;;;;;5050910;28;20358;-89
2023/06/25 03:25:01;;;;;;;18.63;13.18;;;16.90;99.90;;;;;;5035459;28;20041;-89
2023/06/25 03:27:26;;;;;;;18.02;14.93;;;16.90;99.90;;;;;;5044679;28;20388;-88
2023/06/25 03:29:52;;;;;;;16.92;13.45;;;16.90;99.90;;;;;;5054640;28;20052;-90
2023/06/25 03:32:18;;;;;;;19.05;14.68;;;16.90;99.90;;;;;;5046659;28;20033;-88
2023/06/25 03:34:44;;;;;;;17.70;14.02;;;16.90;99.90;;;;;;5046778;28;20759;-89
2023/06/25 03:37:10;;;;;;;18.08;13.55;;;16.90;99.90;;;;;;5053753;28;20105;-89
2023/06/25 03:39:35;;;;;;;18.20;13.65;;;16.90;99.90;;;;;;5054277;28;20123;-89
2023/06/25 03:42:01;;;;;;;15.50;13.23;;;17.30;99.90;;;;;;5055787;28;20048;-89
2023/06/25 03:44:27;;;;;;;17.95;13.93;;;17.00;99.90;;;;;;5071364;28;20444;-88
2023/06/25 03:46:52;;;;;;;18.55;14.32;;;17.50;99.90;;;;;;5054807;28;20078;-88
2023/06/25 03:49:18;;;;;;;18.30;14.48;;;17.50;99.90;;;;;;5053747;28;20265;-89
2023/06/25 03:51:47;;;;;;;19.23;15.07;;;16.90;99.90;;;;;;5055042;28;20464;-90
2023/06/25 03:54:12;;;;;;;17.02;14.30;;;17.00;99.90;;;;;;5054994;28;20437;-90
2023/06/25 03:56:38;;;;;;;19.92;15.38;;;17.40;99.90;;;;;;5054038;28;20040;-88
2023/06/25 03:59:04;;;;;;;17.65;14.02;;;17.10;99.90;;;;;;5052770;28;20082;-88
2023/06/25 04:01:29;;;;;;;20.13;14.57;;;17.10;99.90;;;;;;5052411;28;20041;-88
2023/06/25 04:03:55;;;;;;;19.35;14.70;;;17.10;99.90;;;;;;5052298;28;20462;-88
2023/06/25 04:06:21;;;;;;;20.42;14.45;;;17.20;99.90;;;;;;5052718;28;20045;-89
2023/06/25 04:08:46;;;;;;;20.80;14.93;;;17.20;99.90;;;;;;5054159;28;20076;-89
2023/06/25 04:11:13;;;;;;;19.80;14.88;;;16.90;99.90;;;;;;5051861;28;20053;-89
2023/06/25 04:13:39;;;;;;;17.35;14.05;;;17.30;99.90;;;;;;5053843;28;20082;-89
2023/06/25 04:16:07;;;;;;;19.48;13.82;;;17.50;99.90;;;;;;5052994;28;20072;-92
2023/06/25 04:18:32;;;;;;;17.45;14.38;;;17.20;99.90;;;;;;5052951;28;20091;-90
2023/06/25 04:20:58;;;;;;;17.40;14.35;;;17.40;99.90;;;;;;5053385;28;20049;-90
2023/06/25 04:23:26;;;;;;;16.40;14.00;;;17.80;99.90;;;;;;5053531;28;20055;-90
2023/06/25 04:25:52;;;;;;;16.80;13.18;;;17.40;99.90;;;;;;5069616;28;20040;-89
2023/06/25 04:28:18;;;;;;;17.98;13.63;;;17.50;99.90;;;;;;5070987;28;20076;-90
2023/06/25 04:30:45;;;;;;;15.80;12.80;;;17.70;99.90;;;;;;5053919;28;20048;-92
2023/06/25 04:33:11;;;;;;;15.80;12.63;;;17.50;99.90;;;;;;5053668;28;20043;-91
2023/06/25 04:35:36;;;;;;;16.20;13.13;;;17.60;99.90;;;;;;5053563;28;20040;-90
2023/06/25 04:38:02;;;;;;;13.75;12.18;;;17.60;99.90;;;;;;5053689;28;20266;-91
2023/06/25 04:40:28;;;;;;;15.90;13.02;;;17.70;99.90;;;;;;5056202;28;20124;-90
2023/06/25 04:42:55;;;;;;;16.38;12.63;;;17.70;99.90;;;;;;5075247;28;20056;-92
2023/06/25 04:45:21;;;;;;;14.98;12.38;;;17.80;99.90;;;;;;5074197;28;20067;-91
2023/06/25 04:47:47;;;;;;;16.15;13.40;;;17.80;99.90;;;;;;5053695;28;20037;-91
2023/06/25 04:50:13;;;;;;;16.95;12.38;;;17.90;99.90;;;;;;5036938;28;20052;-91
2023/06/25 04:52:39;;;;;;;16.60;12.57;;;17.90;99.90;;;;;;5037294;28;20067;-89
2023/06/25 04:55:05;;;;;;;15.15;12.15;;;17.90;99.90;;;;;;5052662;28;20041;-91
2023/06/25 04:57:31;;;;;;;16.33;11.45;;;18.10;99.90;;;;;;5037283;28;20059;-91
2023/06/25 04:59:57;;;;;;;13.90;11.38;;;18.10;99.90;;;;;;5036993;28;20045;-89
2023/06/25 05:02:23;;;;;;;14.98;11.88;;;18.20;99.90;;;;;;5037024;28;20083;-91
2023/06/25 05:04:48;;;;;;;15.88;12.07;;;18.20;99.90;;;;;;5046804;28;20072;-88
2023/06/25 05:07:14;;;;;;;14.05;12.05;;;18.30;99.90;;;;;;5055612;28;20110;-89
2023/06/25 05:09:40;;;;;;;14.18;11.68;;;18.50;99.90;;;;;;5070877;28;20040;-90
2023/06/25 05:12:06;;;;;;;13.73;11.52;;;18.70;99.90;;;;;;5074892;28;20041;-91
2023/06/25 05:14:31;;;;;;;13.48;11.15;;;18.50;99.90;;;;;;5055965;28;20064;-91
2023/06/25 05:16:57;;;;;;;13.85;11.93;;;18.60;99.90;;;;;;5053945;28;20051;-89
2023/06/25 05:19:23;;;;;;;14.65;11.13;;;18.60;99.90;;;;;;5071529;28;20051;-89
2023/06/25 05:21:49;;;;;;;13.57;11.45;;;19.20;99.90;;;;;;5072340;28;20045;-93
2023/06/25 05:24:15;;;;;;;15.20;12.30;;;19.10;99.90;;;;;;5047849;28;20318;-92
2023/06/25 05:26:41;;;;;;;13.60;11.15;;;19.10;99.90;;;;;;5059569;28;20067;-92
2023/06/25 05:29:07;;;;;;;15.38;10.75;;;19.40;99.90;;;;;;5055894;28;20040;-93
2023/06/25 05:31:32;;;;;;;12.65;10.57;;;19.60;99.90;;;;;;5052091;28;20045;-93
2023/06/25 05:33:59;;;;;;;13.95;10.63;;;20.40;99.90;;;;;;5053865;28;20041;-91
2023/06/25 05:36:25;;;;;;;12.40;10.30;;;21.50;99.90;;;;;;5036635;28;20057;-92
2023/06/25 05:38:50;;;;;;;13.27;11.15;;;22.50;99.90;;;;;;5036772;28;20033;-92
2023/06/25 05:41:16;;;;;;;12.10;10.18;;;23.40;99.90;;;;;;5055871;28;20106;-93
2023/06/25 05:43:42;;;;;;;11.93;10.73;;;23.80;99.90;;;;;;5050384;28;20086;-91
2023/06/25 05:46:11;;;;;;;12.27;10.80;;;24.60;99.90;;;;;;5048176;28;20052;-90
2023/06/25 05:48:41;;;;;;;12.20;10.13;;;24.70;99.90;;;;;;5055012;28;20062;-93
2023/06/25 05:51:06;;;;;;;11.20;9.65;;;25.00;99.90;;;;;;5041924;28;20618;-87
2023/06/25 05:53:42;;;;;;;11.15;9.52;;;25.40;99.90;;;;;;5049685;28;20175;-87
2023/06/25 05:56:07;;;;;;;12.02;10.50;;;25.40;99.90;;;;;;5065079;28;20056;-85
2023/06/25 05:58:37;;;;;;;11.60;9.73;;;26.00;99.90;;;;;;5067152;28;20051;-86
2023/06/25 06:01:05;;;;;;;11.13;9.88;;;26.00;99.90;;;;;;5065917;28;20048;-86
2023/06/25 06:03:32;;;;;;;11.35;10.30;;;26.50;99.90;;;;;;5067645;28;20040;-85
2023/06/25 06:05:58;;;;;;;11.05;9.73;;;26.70;99.90;;;;;;5063234;28;20051;-87
2023/06/25 06:08:24;;;;;;;11.68;10.48;;;26.80;99.90;;;;;;5067688;28;20080;-88
2023/06/25 06:10:54;;;;;;;11.13;10.00;;;27.30;99.10;;;;;;5068408;28;20129;-87
2023/06/25 06:13:20;;;;;;;11.43;10.32;;;27.30;97.90;;;;;;5047559;28;20052;-86
2023/06/25 06:15:45;;;;;;;11.85;10.50;;;27.30;96.80;;;;;;5064372;28;20036;-85
2023/06/25 06:18:11;;;;;;;11.57;10.35;;;27.20;96.20;;;;;;5060509;28;20063;-84
2023/06/25 06:20:37;;;;;;;11.90;10.57;;;27.30;96.10;;;;;;5043652;28;20420;-85
2023/06/25 06:23:03;;;;;;;11.88;10.68;;;27.20;95.70;;;;;;5048450;28;20093;-83
2023/06/25 06:25:29;;;;;;;11.52;10.43;;;27.10;95.40;;;;;;5049730;28;20113;-83
2023/06/25 06:27:54;;;;;;;11.70;10.50;;;26.70;94.90;;;;;;5067931;28;20082;-84
2023/06/25 06:30:23;;;;;;;12.15;10.55;;;27.40;94.80;;;;;;5066067;28;20580;-83
2023/06/25 06:32:49;;;;;;;11.68;10.48;;;27.40;93.70;;;;;;5066825;28;20051;-82
2023/06/25 06:35:17;;;;;;;10.15;9.25;;;27.70;94.00;;;;;;5067112;28;20048;-84
2023/06/25 06:37:42;;;;;;;12.00;10.80;;;28.10;93.80;;;;;;5066546;28;20048;-83
2023/06/25 06:40:08;;;;;;;12.48;11.18;;;28.30;92.80;;;;;;5068455;28;20041;-84
2023/06/25 06:42:36;;;;;;;11.45;10.35;;;28.10;92.20;;;;;;5049699;28;20084;-86
2023/06/25 06:45:02;;;;;;;12.10;10.93;;;27.80;93.00;;;;;;5066823;28;20044;-87
2023/06/25 06:47:30;;;;;;;12.73;11.48;;;26.90;94.30;;;;;;5067353;28;20121;-87
2023/06/25 06:50:00;;;;;;;11.70;10.70;;;26.20;96.00;;;;;;5050433;28;20057;-86
2023/06/25 06:52:27;;;;;;;12.93;11.77;;;25.80;98.10;;;;;;5048405;28;20183;-86
2023/06/25 06:54:53;;;;;;;12.82;11.50;;;25.30;99.80;;;;;;5062531;28;20079;-86
2023/06/25 06:57:18;;;;;;;11.95;10.75;;;24.80;99.90;;;;;;5066500;28;20516;-87
2023/06/25 06:59:45;;;;;;;12.82;11.52;;;24.70;99.90;;;;;;5065363;28;20127;-86
2023/06/25 07:02:11;;;;;;;12.45;11.35;;;24.50;99.90;;;;;;5063490;28;20078;-86
2023/06/25 07:04:37;;;;;;;12.95;11.73;;;24.60;99.90;;;;;;5065041;28;20535;-87
2023/06/25 07:07:03;;;;;;;12.20;11.10;;;24.80;99.90;;;;;;5047465;28;20108;-87
2023/06/25 07:09:29;;;;;;;12.73;11.52;;;24.70;99.90;;;;;;5050293;28;20041;-86
2023/06/25 07:11:57;;;;;;;12.48;11.27;;;24.70;99.90;;;;;;5048994;28;20044;-86
2023/06/25 07:14:25;;;;;;;13.82;12.52;;;24.70;99.90;;;;;;5046917;28;20838;-87
2023/06/25 07:16:51;;;;;;;12.73;11.48;;;24.90;99.90;;;;;;5057597;28;20045;-86
2023/06/25 07:19:17;;;;;;;12.68;11.38;;;25.20;99.90;;;;;;5045937;28;20056;-86
2023/06/25 07:21:42;;;;;;;12.70;11.60;;;25.00;99.90;;;;;;5048134;28;20044;-86
2023/06/25 07:24:08;;;;;;;11.90;10.70;;;25.10;99.90;;;;;;5047290;28;20044;-85
2023/06/25 07:26:33;;;;;;;11.65;10.45;;;25.20;99.90;;;;;;5049508;28;20411;-84
2023/06/25 07:28:59;;;;;;;12.20;11.00;;;25.30;99.90;;;;;;5064864;28;20151;-86
2023/06/25 07:31:25;;;;;;;12.90;11.52;;;25.00;99.90;;;;;;5066690;28;20488;-86
2023/06/25 07:33:50;;;;;;;13.93;12.48;;;25.70;99.90;;;;;;5044952;28;20048;-86
2023/06/25 07:36:17;;;;;;;12.88;11.68;;;25.60;99.90;;;;;;5056191;28;20116;-86
2023/06/25 07:38:42;;;;;;;12.77;11.02;;;25.80;99.90;;;;;;5055660;28;20057;-86
2023/06/25 07:41:08;;;;;;;13.25;11.95;;;26.00;99.90;;;;;;5050286;28;20404;-87
2023/06/25 07:43:34;;;;;;;13.90;12.40;;;25.90;99.90;;;;;;5046245;28;20037;-83
2023/06/25 07:45:59;;;;;;;12.48;11.27;;;25.90;99.90;;;;;;5066635;28;20119;-84
2023/06/25 07:48:25;;;;;;;12.40;11.25;;;26.00;99.90;;;;;;5066931;28;20080;-84
2023/06/25 07:50:52;;;;;;;12.05;10.95;;;26.00;99.90;;;;;;5065859;28;20113;-85
2023/06/25 07:53:17;;;;;;;12.30;11.10;;;26.20;99.90;;;;;;5065219;28;20424;-83
2023/06/25 07:55:45;;;;;;;13.02;11.50;;;26.10;99.90;;;;;;5066561;28;20042;-84
2023/06/25 07:58:10;;;;;;;12.07;11.00;;;26.10;99.90;;;;;;5064115;28;20055;-83
2023/06/25 08:00:39;;;;;;;11.57;10.52;;;26.20;99.90;;;;;;5066461;28;20131;-83
2023/06/25 08:03:04;;;;;;;12.20;11.10;;;26.30;99.90;;;;;;5066552;28;20143;-83
2023/06/25 08:05:30;;;;;;;10.55;9.55;;;26.60;99.90;;;;;;5065378;28;20040;-82
2023/06/25 08:07:58;;;;;;;11.13;10.13;;;26.60;99.90;;;;;;5062394;28;20493;-83
2023/06/25 08:10:24;;;;;;;13.40;10.57;;;26.90;99.90;;;;;;5066067;28;20172;-85
2023/06/25 08:12:51;;;;;;;10.90;9.90;;;26.90;99.20;;;;;;5064195;28;20121;-84
2023/06/25 08:15:16;;;;;;;11.40;10.15;;;26.90;98.60;;;;;;5052609;28;20519;-84
2023/06/25 08:17:42;;;;;;;11.13;9.52;;;27.30;98.30;;;;;;5052526;28;20143;-85
2023/06/25 08:20:11;;;;;;;9.43;8.52;;;27.20;98.10;;;;;;5053080;28;20060;-83
2023/06/25 08:22:36;;;;;;;10.00;8.98;;;27.20;97.50;;;;;;5070769;28;20047;-84
2023/06/25 08:25:20;;;;;;;10.27;9.13;;;27.20;97.00;;;;;;5067174;28;20041;-85
2023/06/25 08:27:46;;;;;;;10.38;9.48;;;27.30;97.40;;;;;;5060346;28;20480;-84
2023/06/25 08:30:12;;;;;;;12.48;8.93;;;27.50;95.80;;;;;;5071049;28;20083;-84
2023/06/25 08:32:38;;;;;;;9.07;8.27;;;27.30;94.70;;;;;;5052606;28;20045;-83
2023/06/25 08:35:03;;;;;;;8.18;7.40;;;27.50;94.90;;;;;;5068580;28;20039;-83
2023/06/25 08:37:29;;;;;;;9.02;8.23;;;27.50;94.90;;;;;;5052779;28;20048;-84
2023/06/25 08:39:54;;;;;;;7.63;6.85;;;27.60;93.70;;;;;;5049411;28;20443;-84
2023/06/25 08:42:20;;;;;;;8.93;6.57;;;27.60;92.40;;;;;;5052352;28;20048;-84
2023/06/25 08:44:46;;;;;;;7.97;7.28;;;27.70;91.90;;;;;;5070493;28;20544;-83
2023/06/25 08:47:18;;;;;;;7.88;7.07;;;27.60;90.60;;;;;;5051862;28;20044;-83
2023/06/25 08:50:14;;;;;;;6.85;5.72;;;27.80;89.90;;;;;;5069838;28;20067;-85
2023/06/25 08:52:40;;;;;;;6.35;5.57;;;27.80;89.00;;;;;;5065564;28;20052;-83
2023/06/25 08:55:13;;;;;;;5.63;5.07;;;27.90;87.90;;;;;;5066654;28;20044;-87
2023/06/25 08:57:39;;;;;;;6.80;6.10;;;28.10;86.60;;;;;;5069574;28;20090;-87
2023/06/25 09:00:08;;;;;;;7.63;6.85;;;28.30;85.50;;;;;;5065553;28;20041;-83
2023/06/25 09:02:40;;;;;;;7.60;6.82;;;28.30;81.90;;;;;;5066423;28;20500;-84
2023/06/25 09:05:07;;;;;;;5.75;5.25;;;28.20;81.20;;;;;;5059458;28;20124;-84
2023/06/25 09:07:44;;;;;;;6.28;5.20;;;28.20;78.50;;;;;;5044912;28;20048;-84
2023/06/25 09:10:10;;;;;;;5.65;5.10;;;28.40;73.20;;;;;;5039084;28;20080;-84
2023/06/25 09:12:36;;;;;;;5.78;4.70;;;28.30;72.70;;;;;;5061253;28;20375;-85
2023/06/25 09:15:02;;;;;;;4.97;4.55;;;28.30;71.00;;;;;;5062408;28;20074;-86
2023/06/25 09:17:27;;;;;;;4.60;4.10;;;28.30;70.40;;;;;;5060835;28;20040;-84
2023/06/25 09:19:53;;;;;;;5.10;4.47;;;28.50;69.90;;;;;;5044398;28;20033;-84
2023/06/25 09:22:19;;;;;;;5.68;4.57;;;28.60;68.50;;;;;;5059521;28;20072;-84
2023/06/25 09:24:47;;;;;;;4.78;4.20;;;28.70;67.50;;;;;;5061876;28;20048;-85
2023/06/25 09:27:13;;;;;;;5.25;4.75;;;28.80;66.90;;;;;;5061112;28;20048;-84
2023/06/25 09:29:39;;;;;;;5.30;4.80;;;28.90;66.00;;;;;;5062865;28;20103;-84
2023/06/25 09:32:10;;;;;;;5.20;4.30;;;29.00;64.60;;;;;;5061489;28;20202;-83
2023/06/25 09:34:39;;;;;;;5.30;4.80;;;29.00;63.30;;;;;;5040725;28;20064;-85
2023/06/25 09:37:05;;;;;;;4.78;4.28;;;29.10;62.50;;;;;;5043977;28;20597;-84
2023/06/25 09:39:31;;;;;;;5.28;4.00;;;29.00;62.40;;;;;;5053907;28;20174;-83
2023/06/25 09:42:00;;;;;;;5.65;4.35;;;29.00;62.40;;;;;;5049011;28;20135;-83
2023/06/25 09:44:26;;;;;;;5.25;4.15;;;29.10;62.40;;;;;;5052254;28;20048;-84
2023/06/25 09:47:01;;;;;;;5.35;4.38;;;29.10;63.20;;;;;;5067197;28;20131;-83
2023/06/25 09:49:31;;;;;;;4.93;4.10;;;29.20;62.90;;;;;;5067839;28;20053;-82
2023/06/25 09:52:04;;;;;;;4.70;4.30;;;29.20;61.80;;;;;;5067928;28;20056;-81
2023/06/25 09:54:31;;;;;;;5.35;4.25;;;29.10;61.00;;;;;;5068341;28;20041;-83
2023/06/25 09:57:00;;;;;;;4.40;3.95;;;29.20;60.40;;;;;;5068249;28;20185;-82
2023/06/25 09:59:26;;;;;;;6.15;4.53;;;29.20;60.10;;;;;;5050544;28;20059;-84
2023/06/25 10:01:52;;;;;;;7.20;4.60;;;29.20;59.20;;;;;;5051514;28;20131;-83
2023/06/25 10:04:19;;;;;;;4.97;3.90;;;29.10;59.70;;;;;;5066461;28;20063;-82
2023/06/25 10:06:46;;;;;;;5.00;4.25;;;29.20;58.80;;;;;;5069287;28;20395;-86
2023/06/25 10:09:12;;;;;;;4.93;4.43;;;29.20;59.10;;;;;;5066099;28;20558;-86
2023/06/25 10:11:47;;;;;;;6.05;4.03;;;29.20;59.30;;;;;;5050683;28;20044;-83
2023/06/25 10:14:15;;;;;;;5.88;4.45;;;29.30;58.50;;;;;;5068938;28;21150;-83
2023/06/25 10:16:40;;;;;;;5.45;4.38;;;29.30;58.00;;;;;;5064566;28;20516;-83
2023/06/25 10:19:06;;;;;;;5.22;4.72;;;29.30;56.40;;;;;;5058770;28;20044;-83
2023/06/25 10:21:32;;;;;;;4.97;4.35;;;29.40;55.70;;;;;;5072963;28;20059;-84
2023/06/25 10:24:03;;;;;;;5.55;4.80;;;29.50;56.50;;;;;;5039444;28;20036;-83
2023/06/25 10:26:33;;;;;;;4.93;4.40;;;29.40;56.10;;;;;;5060312;28;20539;-82
2023/06/25 10:29:01;;;;;;;4.83;4.30;;;29.40;56.30;;;;;;5057735;28;20056;-83
2023/06/25 10:31:36;;;;;;;4.95;4.30;;;29.30;56.50;;;;;;5060099;28;20052;-84
2023/06/25 10:34:05;;;;;;;4.90;4.40;;;29.50;55.50;;;;;;5059032;28;20048;-83
2023/06/25 10:36:30;;;;;;;9.07;5.20;;;29.60;55.70;;;;;;5059316;28;20083;-83
2023/06/25 10:38:58;;;;;;;5.43;4.53;;;29.70;55.50;;;;;;5062819;28;20118;-83
2023/06/25 10:41:31;;;;;;;4.63;4.07;;;29.50;55.20;;;;;;5058211;28;20412;-82
2023/06/25 10:43:58;;;;;;;5.22;4.47;;;29.60;56.00;;;;;;5056919;28;20111;-83
2023/06/25 10:46:31;;;;;;;4.70;4.25;;;29.60;56.00;;;;;;5058356;28;20033;-83
2023/06/25 10:48:59;;;;;;;4.28;3.88;;;29.70;55.80;;;;;;5058977;28;20064;-83
2023/06/25 10:51:26;;;;;;;4.80;4.30;;;29.80;54.70;;;;;;5058170;28;20041;-83
2023/06/25 10:53:54;;;;;;;4.75;4.35;;;29.90;55.30;;;;;;5058131;28;20043;-83
2023/06/25 10:56:20;;;;;;;4.82;4.00;;;29.90;55.80;;;;;;5060163;28;20050;-83
2023/06/25 10:58:53;;;;;;;5.25;3.97;;;29.90;55.20;;;;;;5059072;28;20044;-83
2023/06/25 11:01:19;;;;;;;4.47;4.07;;;29.90;54.80;;;;;;5062561;28;20048;-84
2023/06/25 11:03:45;;;;;;;4.70;4.15;;;29.90;54.70;;;;;;5060793;28;20469;-85
2023/06/25 11:06:11;;;;;;;5.47;3.90;;;30.00;53.90;;;;;;5063524;28;20461;-86
2023/06/25 11:08:36;;;;;;;5.15;3.90;;;30.10;54.90;;;;;;5061932;28;20141;-85
2023/06/25 11:11:03;;;;;;;8.35;4.20;;;30.20;53.60;;;;;;5040975;28;20056;-88
2023/06/25 11:13:31;;;;;;;5.38;4.40;;;30.10;52.40;;;;;;5059641;28;20407;-87
2023/06/25 11:15:57;;;;;;;4.10;3.60;;;30.00;52.80;;;;;;5040785;28;20039;-84
2023/06/25 11:18:23;;;;;;;4.38;3.97;;;30.20;53.50;;;;;;5063184;28;20052;-85
2023/06/25 11:20:49;;;;;;;4.30;3.90;;;30.30;53.40;;;;;;5060262;28;20089;-85
2023/06/25 11:23:15;;;;;;;4.35;3.78;;;30.40;53.00;;;;;;5058987;28;20045;-84
2023/06/25 11:25:41;;;;;;;4.43;4.03;;;30.40;53.20;;;;;;5058582;28;20706;-85
2023/06/25 11:28:12;;;;;;;4.05;3.53;;;30.40;52.60;;;;;;5060637;28;20128;-84
2023/06/25 11:30:38;;;;;;;4.20;3.80;;;30.30;51.60;;;;;;5058493;28;20530;-83
2023/06/25 11:33:09;;;;;;;4.28;3.83;;;30.30;52.40;;;;;;5059871;28;20041;-83
2023/06/25 11:35:34;;;;;;;5.13;4.20;;;30.30;52.00;;;;;;5057094;28;20106;-85
2023/06/25 11:38:00;;;;;;;4.35;3.95;;;30.40;52.30;;;;;;5061890;28;20271;-85
2023/06/25 11:40:28;;;;;;;5.20;3.72;;;30.50;52.50;;;;;;5040188;28;20041;-84
2023/06/25 11:42:54;;;;;;;4.15;3.75;;;30.50;52.10;;;;;;5066930;28;20041;-84
2023/06/25 11:45:22;;;;;;;4.03;3.72;;;30.30;52.60;;;;;;5041803;28;20123;-84
2023/06/25 11:47:53;;;;;;;5.18;3.97;;;30.40;53.50;;;;;;5063215;28;20053;-85
2023/06/25 11:50:23;;;;;;;4.25;3.78;;;30.50;53.30;;;;;;5067817;28;20631;-84
2023/06/25 11:52:51;;;;;;;4.10;3.80;;;30.40;53.50;;;;;;5042896;28;20148;-82
2023/06/25 11:55:18;;;;;;;4.72;3.92;;;30.50;53.60;;;;;;5060568;28;20094;-86
2023/06/25 11:57:45;;;;;;;4.18;3.88;;;30.50;53.20;;;;;;5058286;28;20134;-85
2023/06/25 12:00:11;;;;;;;4.72;4.28;;;30.50;53.00;;;;;;5058263;28;20066;-86
2023/06/25 12:02:37;;;;;;;3.92;3.58;;;30.60;53.00;;;;;;5059426;28;20055;-86
2023/06/25 12:05:03;;;;;;;4.40;3.60;;;30.70;52.80;;;;;;5056290;28;20036;-82
2023/06/25 12:07:29;;;;;;;4.30;3.90;;;30.70;52.20;;;;;;5059624;28;20055;-81
2023/06/25 12:09:54;;;;;;;4.32;3.90;;;30.60;51.80;;;;;;5056731;28;20036;-82
2023/06/25 12:12:20;;;;;;;4.10;3.70;;;30.70;51.60;;;;;;5057037;28;20048;-81
2023/06/25 12:14:47;;;;;;;5.53;3.90;;;30.70;51.40;;;;;;5054463;28;20205;-83
2023/06/25 12:17:14;;;;;;;6.88;3.72;;;30.60;51.50;;;;;;5056807;28;20080;-81
2023/06/25 12:19:39;;;;;;;4.57;3.67;;;30.70;51.60;;;;;;5055893;28;20046;-82
2023/06/25 12:22:05;;;;;;;4.43;3.90;;;30.70;50.40;;;;;;5057407;28;20888;-82
2023/06/25 12:24:30;;;;;;;4.07;3.78;;;30.60;51.20;;;;;;5054395;28;20049;-82
2023/06/25 12:26:56;;;;;;;4.40;4.00;;;30.60;51.60;;;;;;5056381;28;20040;-83
2023/06/25 12:29:22;;;;;;;5.03;4.55;;;30.70;52.50;;;;;;5053591;28;20095;-84
2023/06/25 12:31:47;;;;;;;5.15;4.65;;;30.70;52.40;;;;;;5076627;28;20049;-84
2023/06/25 12:34:13;;;;;;;4.95;4.25;;;30.80;53.10;;;;;;5053606;28;20045;-85